sensor_id;sensor_type;location;lat;lon;timestamp;P1;durP1;ratioP1;P2;durP2;ratioP2
25409;SDS011;13339;50.840;4.346;2024-01-07T00:01:00;14.13;;;9.70;;
25409;SDS011;13339;50.840;4.346;2024-01-07T00:03:26;15.90;;;10.73;;
25409;SDS011;13339;50.840;4.346;2024-01-07T00:05:52;15.97;;;10.87;;
25409;SDS011;13339;50.840;4.346;2024-01-07T00:08:18;16.03;;;10.07;;
25409;SDS011;13339;50.840;4.346;2024-01-07T00:10:43;17.53;;;10.63;;
25409;SDS011;13339;50.840;4.346;2024-01-07T00:13:09;14.43;;;10.07;;
25409;SDS011;13339;50.840;4.346;2024-01-07T00:15:35;14.37;;;9.90;;
25409;SDS011;13339;50.840;4.346;2024-01-07T00:18:00;13.93;;;9.90;;
25409;SDS011;13339;50.840;4.346;2024-01-07T00:20:26;13.13;;;9.63;;
25409;SDS011;13339;50.840;4.346;2024-01-07T00:22:51;17.13;;;10.93;;
25409;SDS011;13339;50.840;4.346;2024-01-07T00:25:17;19.97;;;11.70;;
25409;SDS011;13339;50.840;4.346;2024-01-07T00:27:43;16.50;;;10.90;;
25409;SDS011;13339;50.840;4.346;2024-01-07T00:30:09;13.60;;;9.80;;
25409;SDS011;13339;50.840;4.346;2024-01-07T00:32:35;18.57;;;11.27;;
25409;SDS011;13339;50.840;4.346;2024-01-07T00:35:01;16.63;;;11.30;;
25409;SDS011;13339;50.840;4.346;2024-01-07T00:37:27;15.53;;;10.73;;
25409;SDS011;13339;50.840;4.346;2024-01-07T00:39:53;15.50;;;10.47;;
25409;SDS011;13339;50.840;4.346;2024-01-07T00:42:19;15.60;;;10.57;;
25409;SDS011;13339;50.840;4.346;2024-01-07T00:44:45;17.50;;;10.90;;
25409;SDS011;13339;50.840;4.346;2024-01-07T00:47:11;14.17;;;10.40;;
25409;SDS011;13339;50.840;4.346;2024-01-07T00:49:36;16.70;;;11.17;;
25409;SDS011;13339;50.840;4.346;2024-01-07T00:52:02;18.97;;;12.10;;
25409;SDS011;13339;50.840;4.346;2024-01-07T00:54:28;18.07;;;11.80;;
25409;SDS011;13339;50.840;4.346;2024-01-07T00:56:53;16.10;;;11.07;;
25409;SDS011;13339;50.840;4.346;2024-01-07T00:59:19;16.33;;;11.90;;
25409;SDS011;13339;50.840;4.346;2024-01-07T01:01:45;17.90;;;11.87;;
25409;SDS011;13339;50.840;4.346;2024-01-07T01:04:10;16.13;;;11.23;;
25409;SDS011;13339;50.840;4.346;2024-01-07T01:06:36;17.87;;;11.40;;
25409;SDS011;13339;50.840;4.346;2024-01-07T01:09:01;16.23;;;11.97;;
25409;SDS011;13339;50.840;4.346;2024-01-07T01:11:27;17.10;;;11.90;;
25409;SDS011;13339;50.840;4.346;2024-01-07T01:13:53;18.37;;;11.33;;
25409;SDS011;13339;50.840;4.346;2024-01-07T01:16:18;17.27;;;10.90;;
25409;SDS011;13339;50.840;4.346;2024-01-07T01:18:44;17.00;;;11.33;;
25409;SDS011;13339;50.840;4.346;2024-01-07T01:21:09;17.17;;;11.17;;
25409;SDS011;13339;50.840;4.346;2024-01-07T01:23:35;18.43;;;11.70;;
25409;SDS011;13339;50.840;4.346;2024-01-07T01:26:01;16.47;;;11.37;;
25409;SDS011;13339;50.840;4.346;2024-01-07T01:28:27;16.97;;;11.40;;
25409;SDS011;13339;50.840;4.346;2024-01-07T01:30:52;18.10;;;11.27;;
25409;SDS011;13339;50.840;4.346;2024-01-07T01:33:18;16.67;;;10.93;;
25409;SDS011;13339;50.840;4.346;2024-01-07T01:35:44;15.70;;;10.53;;
25409;SDS011;13339;50.840;4.346;2024-01-07T01:38:09;16.23;;;11.20;;
25409;SDS011;13339;50.840;4.346;2024-01-07T01:40:36;14.83;;;10.37;;
25409;SDS011;13339;50.840;4.346;2024-01-07T01:43:02;14.97;;;10.37;;
25409;SDS011;13339;50.840;4.346;2024-01-07T01:45:27;16.73;;;10.57;;
25409;SDS011;13339;50.840;4.346;2024-01-07T01:47:53;14.23;;;10.87;;
25409;SDS011;13339;50.840;4.346;2024-01-07T01:50:19;17.00;;;10.67;;
25409;SDS011;13339;50.840;4.346;2024-01-07T01:52:45;15.47;;;10.77;;
25409;SDS011;13339;50.840;4.346;2024-01-07T01:55:11;19.07;;;11.70;;
25409;SDS011;13339;50.840;4.346;2024-01-07T01:57:38;15.60;;;11.10;;
25409;SDS011;13339;50.840;4.346;2024-01-07T02:00:05;15.97;;;11.13;;
25409;SDS011;13339;50.840;4.346;2024-01-07T02:02:32;18.23;;;12.80;;
25409;SDS011;13339;50.840;4.346;2024-01-07T02:04:59;19.60;;;12.17;;
25409;SDS011;13339;50.840;4.346;2024-01-07T02:07:28;18.03;;;12.40;;
25409;SDS011;13339;50.840;4.346;2024-01-07T02:09:55;17.80;;;12.63;;
25409;SDS011;13339;50.840;4.346;2024-01-07T02:12:20;19.63;;;12.93;;
25409;SDS011;13339;50.840;4.346;2024-01-07T02:14:46;18.97;;;12.63;;
25409;SDS011;13339;50.840;4.346;2024-01-07T02:17:12;22.30;;;13.97;;
25409;SDS011;13339;50.840;4.346;2024-01-07T02:19:37;18.93;;;12.93;;
25409;SDS011;13339;50.840;4.346;2024-01-07T02:22:03;22.83;;;12.63;;
25409;SDS011;13339;50.840;4.346;2024-01-07T02:24:29;21.03;;;13.00;;
25409;SDS011;13339;50.840;4.346;2024-01-07T02:26:55;18.37;;;11.40;;
25409;SDS011;13339;50.840;4.346;2024-01-07T02:29:21;19.87;;;12.93;;
25409;SDS011;13339;50.840;4.346;2024-01-07T02:31:47;18.17;;;11.40;;
25409;SDS011;13339;50.840;4.346;2024-01-07T02:34:12;16.50;;;10.97;;
25409;SDS011;13339;50.840;4.346;2024-01-07T02:36:38;14.80;;;10.43;;
25409;SDS011;13339;50.840;4.346;2024-01-07T02:39:04;16.50;;;9.93;;
25409;SDS011;13339;50.840;4.346;2024-01-07T02:41:29;17.27;;;10.60;;
25409;SDS011;13339;50.840;4.346;2024-01-07T02:43:55;14.93;;;10.07;;
25409;SDS011;13339;50.840;4.346;2024-01-07T02:46:22;16.47;;;9.63;;
25409;SDS011;13339;50.840;4.346;2024-01-07T02:48:48;16.20;;;10.37;;
25409;SDS011;13339;50.840;4.346;2024-01-07T02:51:14;17.77;;;11.50;;
25409;SDS011;13339;50.840;4.346;2024-01-07T02:53:40;17.53;;;12.13;;
25409;SDS011;13339;50.840;4.346;2024-01-07T02:56:05;17.80;;;11.80;;
25409;SDS011;13339;50.840;4.346;2024-01-07T02:58:33;16.00;;;11.47;;
25409;SDS011;13339;50.840;4.346;2024-01-07T03:00:59;21.07;;;13.20;;
25409;SDS011;13339;50.840;4.346;2024-01-07T03:03:25;17.70;;;11.73;;
25409;SDS011;13339;50.840;4.346;2024-01-07T03:05:51;17.70;;;11.97;;
25409;SDS011;13339;50.840;4.346;2024-01-07T03:08:16;17.60;;;12.03;;
25409;SDS011;13339;50.840;4.346;2024-01-07T03:10:42;18.13;;;11.97;;
25409;SDS011;13339;50.840;4.346;2024-01-07T03:13:07;18.70;;;12.30;;
25409;SDS011;13339;50.840;4.346;2024-01-07T03:15:33;18.50;;;12.10;;
25409;SDS011;13339;50.840;4.346;2024-01-07T03:17:59;19.00;;;12.70;;
25409;SDS011;13339;50.840;4.346;2024-01-07T03:20:24;22.37;;;13.07;;
25409;SDS011;13339;50.840;4.346;2024-01-07T03:22:50;19.27;;;12.73;;
25409;SDS011;13339;50.840;4.346;2024-01-07T03:25:15;19.67;;;13.40;;
25409;SDS011;13339;50.840;4.346;2024-01-07T03:27:41;23.60;;;13.40;;
25409;SDS011;13339;50.840;4.346;2024-01-07T03:30:07;19.67;;;12.90;;
25409;SDS011;13339;50.840;4.346;2024-01-07T03:32:34;20.37;;;13.10;;
25409;SDS011;13339;50.840;4.346;2024-01-07T03:34:59;22.93;;;13.97;;
25409;SDS011;13339;50.840;4.346;2024-01-07T03:37:25;19.93;;;13.30;;
25409;SDS011;13339;50.840;4.346;2024-01-07T03:39:50;23.97;;;14.30;;
25409;SDS011;13339;50.840;4.346;2024-01-07T03:42:16;24.10;;;15.07;;
25409;SDS011;13339;50.840;4.346;2024-01-07T03:44:42;22.63;;;14.93;;
25409;SDS011;13339;50.840;4.346;2024-01-07T03:47:07;25.70;;;15.37;;
25409;SDS011;13339;50.840;4.346;2024-01-07T03:49:33;26.10;;;15.17;;
25409;SDS011;13339;50.840;4.346;2024-01-07T03:52:01;28.23;;;16.90;;
25409;SDS011;13339;50.840;4.346;2024-01-07T03:54:26;29.57;;;18.17;;
25409;SDS011;13339;50.840;4.346;2024-01-07T03:56:52;26.47;;;15.93;;
25409;SDS011;13339;50.840;4.346;2024-01-07T03:59:17;30.20;;;17.67;;
25409;SDS011;13339;50.840;4.346;2024-01-07T04:01:43;28.87;;;16.07;;
25409;SDS011;13339;50.840;4.346;2024-01-07T04:04:09;29.60;;;17.03;;
25409;SDS011;13339;50.840;4.346;2024-01-07T04:06:35;28.93;;;16.60;;
25409;SDS011;13339;50.840;4.346;2024-01-07T04:09:00;29.63;;;18.03;;
25409;SDS011;13339;50.840;4.346;2024-01-07T04:11:28;28.93;;;17.70;;
25409;SDS011;13339;50.840;4.346;2024-01-07T04:13:53;30.70;;;17.63;;
25409;SDS011;13339;50.840;4.346;2024-01-07T04:16:19;30.40;;;18.37;;
25409;SDS011;13339;50.840;4.346;2024-01-07T04:18:45;28.10;;;17.63;;
25409;SDS011;13339;50.840;4.346;2024-01-07T04:21:12;32.93;;;18.33;;
25409;SDS011;13339;50.840;4.346;2024-01-07T04:23:40;32.33;;;18.67;;
25409;SDS011;13339;50.840;4.346;2024-01-07T04:26:06;34.40;;;18.93;;
25409;SDS011;13339;50.840;4.346;2024-01-07T04:28:32;34.90;;;19.77;;
25409;SDS011;13339;50.840;4.346;2024-01-07T04:30:58;36.13;;;19.70;;
25409;SDS011;13339;50.840;4.346;2024-01-07T04:33:24;34.80;;;19.13;;
25409;SDS011;13339;50.840;4.346;2024-01-07T04:35:49;37.87;;;21.27;;
25409;SDS011;13339;50.840;4.346;2024-01-07T04:38:15;40.57;;;22.17;;
25409;SDS011;13339;50.840;4.346;2024-01-07T04:40:40;41.03;;;21.83;;
25409;SDS011;13339;50.840;4.346;2024-01-07T04:43:06;41.57;;;21.10;;
25409;SDS011;13339;50.840;4.346;2024-01-07T04:45:32;41.97;;;22.80;;
25409;SDS011;13339;50.840;4.346;2024-01-07T04:47:57;45.67;;;22.73;;
25409;SDS011;13339;50.840;4.346;2024-01-07T04:50:23;41.37;;;22.07;;
25409;SDS011;13339;50.840;4.346;2024-01-07T04:52:48;43.60;;;22.87;;
25409;SDS011;13339;50.840;4.346;2024-01-07T04:55:14;48.73;;;23.20;;
25409;SDS011;13339;50.840;4.346;2024-01-07T04:57:40;38.17;;;21.20;;
25409;SDS011;13339;50.840;4.346;2024-01-07T05:00:06;45.03;;;22.30;;
25409;SDS011;13339;50.840;4.346;2024-01-07T05:02:32;47.70;;;24.47;;
25409;SDS011;13339;50.840;4.346;2024-01-07T05:04:57;46.10;;;24.03;;
25409;SDS011;13339;50.840;4.346;2024-01-07T05:07:23;48.27;;;24.93;;
25409;SDS011;13339;50.840;4.346;2024-01-07T05:09:48;44.30;;;23.57;;
25409;SDS011;13339;50.840;4.346;2024-01-07T05:12:14;45.07;;;23.97;;
25409;SDS011;13339;50.840;4.346;2024-01-07T05:14:40;45.43;;;23.10;;
25409;SDS011;13339;50.840;4.346;2024-01-07T05:17:07;49.70;;;25.53;;
25409;SDS011;13339;50.840;4.346;2024-01-07T05:19:33;45.70;;;24.47;;
25409;SDS011;13339;50.840;4.346;2024-01-07T05:21:59;48.63;;;24.10;;
25409;SDS011;13339;50.840;4.346;2024-01-07T05:24:25;49.40;;;25.27;;
25409;SDS011;13339;50.840;4.346;2024-01-07T05:26:50;43.23;;;23.43;;
25409;SDS011;13339;50.840;4.346;2024-01-07T05:29:16;47.37;;;25.77;;
25409;SDS011;13339;50.840;4.346;2024-01-07T05:31:41;42.20;;;22.93;;
25409;SDS011;13339;50.840;4.346;2024-01-07T05:34:07;42.57;;;24.00;;
25409;SDS011;13339;50.840;4.346;2024-01-07T05:36:33;46.00;;;25.07;;
25409;SDS011;13339;50.840;4.346;2024-01-07T05:38:59;42.00;;;23.33;;
25409;SDS011;13339;50.840;4.346;2024-01-07T05:41:24;44.57;;;23.77;;
25409;SDS011;13339;50.840;4.346;2024-01-07T05:43:50;42.03;;;23.20;;
25409;SDS011;13339;50.840;4.346;2024-01-07T05:46:16;40.53;;;22.67;;
25409;SDS011;13339;50.840;4.346;2024-01-07T05:48:42;40.43;;;22.87;;
25409;SDS011;13339;50.840;4.346;2024-01-07T05:51:14;43.47;;;21.77;;
25409;SDS011;13339;50.840;4.346;2024-01-07T05:53:41;38.43;;;21.97;;
25409;SDS011;13339;50.840;4.346;2024-01-07T05:56:07;38.47;;;22.23;;
25409;SDS011;13339;50.840;4.346;2024-01-07T05:58:33;39.90;;;22.60;;
25409;SDS011;13339;50.840;4.346;2024-01-07T06:00:59;36.63;;;20.43;;
25409;SDS011;13339;50.840;4.346;2024-01-07T06:03:25;47.37;;;24.00;;
25409;SDS011;13339;50.840;4.346;2024-01-07T06:05:51;45.53;;;23.07;;
25409;SDS011;13339;50.840;4.346;2024-01-07T06:08:17;48.23;;;25.13;;
25409;SDS011;13339;50.840;4.346;2024-01-07T06:10:43;44.50;;;22.93;;
25409;SDS011;13339;50.840;4.346;2024-01-07T06:13:08;45.07;;;24.30;;
25409;SDS011;13339;50.840;4.346;2024-01-07T06:15:34;42.40;;;20.23;;
25409;SDS011;13339;50.840;4.346;2024-01-07T06:17:59;45.20;;;23.40;;
25409;SDS011;13339;50.840;4.346;2024-01-07T06:20:25;43.47;;;23.97;;
25409;SDS011;13339;50.840;4.346;2024-01-07T06:22:50;51.37;;;25.63;;
25409;SDS011;13339;50.840;4.346;2024-01-07T06:25:16;43.30;;;23.60;;
25409;SDS011;13339;50.840;4.346;2024-01-07T06:27:42;42.17;;;23.43;;
25409;SDS011;13339;50.840;4.346;2024-01-07T06:30:08;46.93;;;23.63;;
25409;SDS011;13339;50.840;4.346;2024-01-07T06:32:34;42.80;;;23.30;;
25409;SDS011;13339;50.840;4.346;2024-01-07T06:35:00;48.00;;;23.77;;
25409;SDS011;13339;50.840;4.346;2024-01-07T06:37:28;43.40;;;24.57;;
25409;SDS011;13339;50.840;4.346;2024-01-07T06:39:55;50.97;;;26.33;;
25409;SDS011;13339;50.840;4.346;2024-01-07T06:42:21;49.97;;;25.23;;
25409;SDS011;13339;50.840;4.346;2024-01-07T06:44:46;51.43;;;25.20;;
25409;SDS011;13339;50.840;4.346;2024-01-07T06:47:12;48.90;;;23.47;;
25409;SDS011;13339;50.840;4.346;2024-01-07T06:49:38;48.43;;;24.57;;
25409;SDS011;13339;50.840;4.346;2024-01-07T06:52:04;50.57;;;25.57;;
25409;SDS011;13339;50.840;4.346;2024-01-07T06:54:30;46.93;;;23.93;;
25409;SDS011;13339;50.840;4.346;2024-01-07T06:56:56;49.57;;;24.93;;
25409;SDS011;13339;50.840;4.346;2024-01-07T06:59:22;47.67;;;24.63;;
25409;SDS011;13339;50.840;4.346;2024-01-07T07:01:48;49.33;;;24.83;;
25409;SDS011;13339;50.840;4.346;2024-01-07T07:04:13;49.93;;;25.13;;
25409;SDS011;13339;50.840;4.346;2024-01-07T07:06:39;50.03;;;23.93;;
25409;SDS011;13339;50.840;4.346;2024-01-07T07:09:05;52.70;;;24.03;;
25409;SDS011;13339;50.840;4.346;2024-01-07T07:11:31;50.83;;;25.63;;
25409;SDS011;13339;50.840;4.346;2024-01-07T07:13:57;55.23;;;25.93;;
25409;SDS011;13339;50.840;4.346;2024-01-07T07:16:23;47.50;;;23.40;;
25409;SDS011;13339;50.840;4.346;2024-01-07T07:18:48;50.40;;;23.00;;
25409;SDS011;13339;50.840;4.346;2024-01-07T07:21:14;50.50;;;23.53;;
25409;SDS011;13339;50.840;4.346;2024-01-07T07:23:40;56.07;;;27.47;;
25409;SDS011;13339;50.840;4.346;2024-01-07T07:26:05;68.03;;;28.67;;
25409;SDS011;13339;50.840;4.346;2024-01-07T07:28:32;56.33;;;27.17;;
25409;SDS011;13339;50.840;4.346;2024-01-07T07:30:57;57.67;;;25.27;;
25409;SDS011;13339;50.840;4.346;2024-01-07T07:33:23;57.87;;;27.43;;
25409;SDS011;13339;50.840;4.346;2024-01-07T07:35:49;57.97;;;26.07;;
25409;SDS011;13339;50.840;4.346;2024-01-07T07:38:15;51.83;;;25.10;;
25409;SDS011;13339;50.840;4.346;2024-01-07T07:40:40;62.13;;;24.30;;
25409;SDS011;13339;50.840;4.346;2024-01-07T07:43:07;54.70;;;24.53;;
25409;SDS011;13339;50.840;4.346;2024-01-07T07:45:33;54.90;;;24.77;;
25409;SDS011;13339;50.840;4.346;2024-01-07T07:47:58;63.40;;;26.70;;
25409;SDS011;13339;50.840;4.346;2024-01-07T07:50:24;57.53;;;26.73;;
25409;SDS011;13339;50.840;4.346;2024-01-07T07:52:49;55.27;;;25.77;;
25409;SDS011;13339;50.840;4.346;2024-01-07T07:55:15;60.92;;;33.50;;
25409;SDS011;13339;50.840;4.346;2024-01-07T07:57:41;55.33;;;27.90;;
25409;SDS011;13339;50.840;4.346;2024-01-07T08:00:06;56.17;;;26.40;;
25409;SDS011;13339;50.840;4.346;2024-01-07T08:02:32;53.20;;;25.67;;
25409;SDS011;13339;50.840;4.346;2024-01-07T08:04:58;48.77;;;25.43;;
25409;SDS011;13339;50.840;4.346;2024-01-07T08:07:24;54.17;;;26.00;;
25409;SDS011;13339;50.840;4.346;2024-01-07T08:09:50;50.40;;;24.07;;
25409;SDS011;13339;50.840;4.346;2024-01-07T08:12:16;49.10;;;24.53;;
25409;SDS011;13339;50.840;4.346;2024-01-07T08:14:41;52.67;;;25.93;;
25409;SDS011;13339;50.840;4.346;2024-01-07T08:17:07;58.00;;;28.90;;
25409;SDS011;13339;50.840;4.346;2024-01-07T08:19:33;58.20;;;27.97;;
25409;SDS011;13339;50.840;4.346;2024-01-07T08:21:59;69.30;;;31.43;;
25409;SDS011;13339;50.840;4.346;2024-01-07T08:24:25;53.70;;;27.93;;
25409;SDS011;13339;50.840;4.346;2024-01-07T08:26:50;60.43;;;28.60;;
25409;SDS011;13339;50.840;4.346;2024-01-07T08:29:16;67.60;;;29.13;;
25409;SDS011;13339;50.840;4.346;2024-01-07T08:31:42;62.50;;;27.00;;
25409;SDS011;13339;50.840;4.346;2024-01-07T08:34:08;60.77;;;27.10;;
25409;SDS011;13339;50.840;4.346;2024-01-07T08:36:34;56.37;;;26.73;;
25409;SDS011;13339;50.840;4.346;2024-01-07T08:38:59;51.00;;;25.00;;
25409;SDS011;13339;50.840;4.346;2024-01-07T08:41:25;54.57;;;27.20;;
25409;SDS011;13339;50.840;4.346;2024-01-07T08:43:51;56.77;;;26.67;;
25409;SDS011;13339;50.840;4.346;2024-01-07T08:46:19;52.43;;;25.83;;
25409;SDS011;13339;50.840;4.346;2024-01-07T08:48:45;52.37;;;25.27;;
25409;SDS011;13339;50.840;4.346;2024-01-07T08:51:12;48.20;;;24.33;;
25409;SDS011;13339;50.840;4.346;2024-01-07T08:53:38;44.43;;;22.47;;
25409;SDS011;13339;50.840;4.346;2024-01-07T08:56:05;42.30;;;20.07;;
25409;SDS011;13339;50.840;4.346;2024-01-07T08:58:31;42.70;;;21.50;;
25409;SDS011;13339;50.840;4.346;2024-01-07T09:00:57;38.70;;;19.53;;
25409;SDS011;13339;50.840;4.346;2024-01-07T09:03:23;41.73;;;22.37;;
25409;SDS011;13339;50.840;4.346;2024-01-07T09:05:49;38.80;;;20.50;;
25409;SDS011;13339;50.840;4.346;2024-01-07T09:08:14;43.27;;;21.80;;
25409;SDS011;13339;50.840;4.346;2024-01-07T09:10:40;37.17;;;19.57;;
25409;SDS011;13339;50.840;4.346;2024-01-07T09:13:06;41.70;;;21.60;;
25409;SDS011;13339;50.840;4.346;2024-01-07T09:15:32;35.37;;;19.73;;
25409;SDS011;13339;50.840;4.346;2024-01-07T09:17:57;39.03;;;21.30;;
25409;SDS011;13339;50.840;4.346;2024-01-07T09:20:23;33.27;;;18.90;;
25409;SDS011;13339;50.840;4.346;2024-01-07T09:22:49;32.90;;;18.57;;
25409;SDS011;13339;50.840;4.346;2024-01-07T09:25:14;30.50;;;17.70;;
25409;SDS011;13339;50.840;4.346;2024-01-07T09:27:41;32.78;;;21.95;;
25409;SDS011;13339;50.840;4.346;2024-01-07T09:30:08;31.73;;;18.87;;
25409;SDS011;13339;50.840;4.346;2024-01-07T09:32:36;30.43;;;17.97;;
25409;SDS011;13339;50.840;4.346;2024-01-07T09:35:02;31.50;;;17.90;;
25409;SDS011;13339;50.840;4.346;2024-01-07T09:37:30;30.43;;;17.50;;
25409;SDS011;13339;50.840;4.346;2024-01-07T09:39:56;30.30;;;17.40;;
25409;SDS011;13339;50.840;4.346;2024-01-07T09:42:22;33.00;;;18.40;;
25409;SDS011;13339;50.840;4.346;2024-01-07T09:44:47;33.67;;;18.37;;
25409;SDS011;13339;50.840;4.346;2024-01-07T09:47:15;30.67;;;18.13;;
25409;SDS011;13339;50.840;4.346;2024-01-07T09:49:41;35.73;;;19.20;;
25409;SDS011;13339;50.840;4.346;2024-01-07T09:52:08;35.40;;;19.23;;
25409;SDS011;13339;50.840;4.346;2024-01-07T09:54:39;34.17;;;20.60;;
25409;SDS011;13339;50.840;4.346;2024-01-07T09:57:06;35.73;;;19.70;;
25409;SDS011;13339;50.840;4.346;2024-01-07T09:59:33;34.63;;;20.93;;
25409;SDS011;13339;50.840;4.346;2024-01-07T10:01:59;34.00;;;21.37;;
25409;SDS011;13339;50.840;4.346;2024-01-07T10:04:25;35.70;;;20.97;;
25409;SDS011;13339;50.840;4.346;2024-01-07T10:06:52;35.63;;;20.67;;
25409;SDS011;13339;50.840;4.346;2024-01-07T10:09:19;31.87;;;19.33;;
25409;SDS011;13339;50.840;4.346;2024-01-07T10:11:51;37.40;;;21.77;;
25409;SDS011;13339;50.840;4.346;2024-01-07T10:14:18;35.93;;;20.63;;
25409;SDS011;13339;50.840;4.346;2024-01-07T10:16:44;36.90;;;21.33;;
25409;SDS011;13339;50.840;4.346;2024-01-07T10:19:10;38.00;;;20.57;;
25409;SDS011;13339;50.840;4.346;2024-01-07T10:21:36;34.47;;;20.47;;
25409;SDS011;13339;50.840;4.346;2024-01-07T10:24:11;35.60;;;20.80;;
25409;SDS011;13339;50.840;4.346;2024-01-07T10:26:38;34.40;;;19.97;;
25409;SDS011;13339;50.840;4.346;2024-01-07T10:29:04;39.53;;;21.53;;
25409;SDS011;13339;50.840;4.346;2024-01-07T10:31:33;35.63;;;20.50;;
25409;SDS011;13339;50.840;4.346;2024-01-07T10:34:00;36.93;;;21.10;;
25409;SDS011;13339;50.840;4.346;2024-01-07T10:36:25;39.63;;;22.30;;
25409;SDS011;13339;50.840;4.346;2024-01-07T10:38:51;34.00;;;20.00;;
25409;SDS011;13339;50.840;4.346;2024-01-07T10:41:20;33.47;;;20.27;;
25409;SDS011;13339;50.840;4.346;2024-01-07T10:43:46;30.93;;;19.77;;
25409;SDS011;13339;50.840;4.346;2024-01-07T10:46:13;29.40;;;18.83;;
25409;SDS011;13339;50.840;4.346;2024-01-07T10:48:47;30.10;;;19.00;;
25409;SDS011;13339;50.840;4.346;2024-01-07T10:51:20;32.77;;;19.17;;
25409;SDS011;13339;50.840;4.346;2024-01-07T10:53:46;35.40;;;19.77;;
25409;SDS011;13339;50.840;4.346;2024-01-07T10:56:18;30.60;;;18.07;;
25409;SDS011;13339;50.840;4.346;2024-01-07T10:58:48;34.77;;;19.87;;
25409;SDS011;13339;50.840;4.346;2024-01-07T11:01:22;34.83;;;20.20;;
25409;SDS011;13339;50.840;4.346;2024-01-07T11:06:22;32.37;;;19.40;;
25409;SDS011;13339;50.840;4.346;2024-01-07T11:09:02;37.03;;;20.23;;
25409;SDS011;13339;50.840;4.346;2024-01-07T11:11:38;33.87;;;20.17;;
25409;SDS011;13339;50.840;4.346;2024-01-07T11:14:33;32.87;;;19.57;;
25409;SDS011;13339;50.840;4.346;2024-01-07T11:16:59;29.73;;;17.80;;
25409;SDS011;13339;50.840;4.346;2024-01-07T11:19:25;29.17;;;17.20;;
25409;SDS011;13339;50.840;4.346;2024-01-07T11:21:51;31.50;;;17.87;;
25409;SDS011;13339;50.840;4.346;2024-01-07T11:24:38;28.30;;;17.83;;
25409;SDS011;13339;50.840;4.346;2024-01-07T11:27:03;32.23;;;18.10;;
25409;SDS011;13339;50.840;4.346;2024-01-07T11:29:31;30.67;;;18.10;;
25409;SDS011;13339;50.840;4.346;2024-01-07T11:31:57;29.20;;;17.67;;
25409;SDS011;13339;50.840;4.346;2024-01-07T11:34:39;30.50;;;17.30;;
25409;SDS011;13339;50.840;4.346;2024-01-07T11:37:12;25.43;;;16.00;;
25409;SDS011;13339;50.840;4.346;2024-01-07T11:39:47;24.77;;;16.27;;
25409;SDS011;13339;50.840;4.346;2024-01-07T11:42:16;23.77;;;15.83;;
25409;SDS011;13339;50.840;4.346;2024-01-07T11:44:45;26.60;;;16.20;;
25409;SDS011;13339;50.840;4.346;2024-01-07T11:47:19;28.90;;;17.20;;
25409;SDS011;13339;50.840;4.346;2024-01-07T11:49:45;25.10;;;15.63;;
25409;SDS011;13339;50.840;4.346;2024-01-07T11:52:12;24.13;;;16.30;;
25409;SDS011;13339;50.840;4.346;2024-01-07T11:54:38;28.20;;;16.47;;
25409;SDS011;13339;50.840;4.346;2024-01-07T11:57:07;25.10;;;16.17;;
25409;SDS011;13339;50.840;4.346;2024-01-07T11:59:34;28.33;;;16.63;;
25409;SDS011;13339;50.840;4.346;2024-01-07T12:02:01;21.73;;;13.07;;
25409;SDS011;13339;50.840;4.346;2024-01-07T12:04:29;28.40;;;15.03;;
25409;SDS011;13339;50.840;4.346;2024-01-07T12:06:55;25.60;;;15.23;;
25409;SDS011;13339;50.840;4.346;2024-01-07T12:09:21;30.53;;;15.37;;
25409;SDS011;13339;50.840;4.346;2024-01-07T12:11:47;30.43;;;15.47;;
25409;SDS011;13339;50.840;4.346;2024-01-07T12:14:12;29.93;;;16.00;;
25409;SDS011;13339;50.840;4.346;2024-01-07T12:16:39;25.43;;;14.20;;
25409;SDS011;13339;50.840;4.346;2024-01-07T12:19:05;23.23;;;13.80;;
25409;SDS011;13339;50.840;4.346;2024-01-07T12:21:31;30.10;;;15.50;;
25409;SDS011;13339;50.840;4.346;2024-01-07T12:23:57;29.73;;;16.60;;
25409;SDS011;13339;50.840;4.346;2024-01-07T12:26:26;25.27;;;13.97;;
25409;SDS011;13339;50.840;4.346;2024-01-07T12:28:53;23.77;;;11.13;;
25409;SDS011;13339;50.840;4.346;2024-01-07T12:31:32;23.97;;;13.60;;
25409;SDS011;13339;50.840;4.346;2024-01-07T12:33:59;23.90;;;14.07;;
25409;SDS011;13339;50.840;4.346;2024-01-07T12:36:25;26.37;;;14.33;;
25409;SDS011;13339;50.840;4.346;2024-01-07T12:38:51;24.17;;;13.13;;
25409;SDS011;13339;50.840;4.346;2024-01-07T12:41:21;23.23;;;13.37;;
25409;SDS011;13339;50.840;4.346;2024-01-07T12:43:47;26.53;;;14.53;;
25409;SDS011;13339;50.840;4.346;2024-01-07T12:46:13;26.93;;;14.37;;
25409;SDS011;13339;50.840;4.346;2024-01-07T12:48:39;34.17;;;15.20;;
25409;SDS011;13339;50.840;4.346;2024-01-07T12:51:05;23.70;;;14.73;;
25409;SDS011;13339;50.840;4.346;2024-01-07T12:53:31;23.57;;;13.33;;
25409;SDS011;13339;50.840;4.346;2024-01-07T12:55:56;24.33;;;12.87;;
25409;SDS011;13339;50.840;4.346;2024-01-07T12:58:22;22.83;;;12.67;;
25409;SDS011;13339;50.840;4.346;2024-01-07T13:00:48;26.03;;;14.93;;
25409;SDS011;13339;50.840;4.346;2024-01-07T13:03:14;21.93;;;12.93;;
25409;SDS011;13339;50.840;4.346;2024-01-07T13:05:45;23.30;;;13.47;;
25409;SDS011;13339;50.840;4.346;2024-01-07T13:08:14;23.23;;;13.10;;
25409;SDS011;13339;50.840;4.346;2024-01-07T13:10:40;22.50;;;13.70;;
25409;SDS011;13339;50.840;4.346;2024-01-07T13:13:06;21.03;;;13.23;;
25409;SDS011;13339;50.840;4.346;2024-01-07T13:15:34;23.27;;;14.13;;
25409;SDS011;13339;50.840;4.346;2024-01-07T13:17:59;24.30;;;13.30;;
25409;SDS011;13339;50.840;4.346;2024-01-07T13:20:25;20.83;;;13.30;;
25409;SDS011;13339;50.840;4.346;2024-01-07T13:22:51;22.53;;;13.03;;
25409;SDS011;13339;50.840;4.346;2024-01-07T13:25:16;22.37;;;13.80;;
25409;SDS011;13339;50.840;4.346;2024-01-07T13:27:42;24.13;;;14.50;;
25409;SDS011;13339;50.840;4.346;2024-01-07T13:30:08;20.47;;;12.77;;
25409;SDS011;13339;50.840;4.346;2024-01-07T13:32:34;20.77;;;12.63;;
25409;SDS011;13339;50.840;4.346;2024-01-07T13:35:01;20.93;;;12.40;;
25409;SDS011;13339;50.840;4.346;2024-01-07T13:37:32;20.73;;;12.77;;
25409;SDS011;13339;50.840;4.346;2024-01-07T13:39:57;21.67;;;13.57;;
25409;SDS011;13339;50.840;4.346;2024-01-07T13:42:23;17.43;;;12.13;;
25409;SDS011;13339;50.840;4.346;2024-01-07T13:44:49;21.53;;;11.97;;
25409;SDS011;13339;50.840;4.346;2024-01-07T13:47:14;18.80;;;12.10;;
25409;SDS011;13339;50.840;4.346;2024-01-07T13:49:41;20.37;;;12.47;;
25409;SDS011;13339;50.840;4.346;2024-01-07T13:52:07;21.97;;;12.43;;
25409;SDS011;13339;50.840;4.346;2024-01-07T13:54:32;20.17;;;12.80;;
25409;SDS011;13339;50.840;4.346;2024-01-07T13:56:58;20.63;;;12.23;;
25409;SDS011;13339;50.840;4.346;2024-01-07T13:59:24;18.77;;;12.80;;
25409;SDS011;13339;50.840;4.346;2024-01-07T14:01:51;16.43;;;9.70;;
25409;SDS011;13339;50.840;4.346;2024-01-07T14:04:16;18.27;;;11.77;;
25409;SDS011;13339;50.840;4.346;2024-01-07T14:06:42;16.43;;;11.47;;
25409;SDS011;13339;50.840;4.346;2024-01-07T14:09:08;15.90;;;11.37;;
25409;SDS011;13339;50.840;4.346;2024-01-07T14:11:34;17.60;;;12.13;;
25409;SDS011;13339;50.840;4.346;2024-01-07T14:14:00;15.67;;;11.87;;
25409;SDS011;13339;50.840;4.346;2024-01-07T14:16:26;19.40;;;12.33;;
25409;SDS011;13339;50.840;4.346;2024-01-07T14:18:52;17.13;;;12.50;;